Time;durP1;ratioP1;P1;durP2;ratioP2;P2;SDS_P1;SDS_P2;PMS_P1;PMS_P2;Temp;Humidity;BMP_temperature;BMP_pressure;BME280_temperature;BME280_humidity;BME280_pressure;Samples;Min_cycle;Max_cycle;Signal;HPM_P1;HPM_P2
2021/10/06 00:00:59;;;;;;;10.65;7.75;;;12.70;99.90;;;;;;5050772;28;20031;-76
2021/10/06 00:03:25;;;;;;;11.98;8.25;;;12.60;99.90;;;;;;5051912;28;20025;-75
2021/10/06 00:05:50;;;;;;;10.48;7.57;;;12.70;99.90;;;;;;5017993;28;20043;-75
2021/10/06 00:08:16;;;;;;;11.50;8.30;;;12.60;99.90;;;;;;5052281;28;20079;-75
2021/10/06 00:10:42;;;;;;;11.55;8.43;;;12.60;99.90;;;;;;5051918;28;20084;-72
2021/10/06 00:13:08;;;;;;;8.88;6.97;;;12.70;99.90;;;;;;5051944;28;20037;-73
2021/10/06 00:15:33;;;;;;;10.32;7.22;;;12.70;99.90;;;;;;5050378;28;20033;-74
2021/10/06 00:17:59;;;;;;;9.45;6.75;;;12.70;99.90;;;;;;5051495;28;20124;-74
2021/10/06 00:20:25;;;;;;;8.95;6.47;;;12.70;99.90;;;;;;5052168;28;20037;-73
2021/10/06 00:22:51;;;;;;;7.80;6.55;;;12.70;99.90;;;;;;5051914;28;20017;-73
2021/10/06 00:25:16;;;;;;;9.13;6.82;;;12.80;99.90;;;;;;5051196;28;20122;-73
2021/10/06 00:27:43;;;;;;;8.52;6.72;;;12.80;99.90;;;;;;5051866;28;20086;-72
2021/10/06 00:30:09;;;;;;;10.00;7.30;;;12.80;99.90;;;;;;5050700;28;20040;-72
2021/10/06 00:32:35;;;;;;;12.88;6.78;;;12.80;99.90;;;;;;5032482;28;20116;-73
2021/10/06 00:35:00;;;;;;;10.52;7.80;;;12.90;99.90;;;;;;5051465;28;20546;-74
2021/10/06 00:37:26;;;;;;;14.63;7.88;;;12.80;99.90;;;;;;5033728;28;20339;-73
2021/10/06 00:39:52;;;;;;;11.68;7.22;;;12.80;99.90;;;;;;5051339;28;20073;-73
2021/10/06 00:42:18;;;;;;;11.18;6.63;;;12.80;99.90;;;;;;5051068;28;20032;-73
2021/10/06 00:44:43;;;;;;;8.30;5.72;;;12.90;99.90;;;;;;5030279;28;20021;-73
2021/10/06 00:47:13;;;;;;;9.05;6.20;;;12.90;99.90;;;;;;5031394;28;20610;-74
2021/10/06 00:49:40;;;;;;;13.38;7.75;;;13.00;99.90;;;;;;5048074;28;20431;-74
2021/10/06 00:52:06;;;;;;;10.38;7.80;;;12.90;99.90;;;;;;5051064;28;20158;-74
2021/10/06 00:54:35;;;;;;;9.25;6.75;;;13.00;99.90;;;;;;5033394;28;20122;-74
2021/10/06 00:57:01;;;;;;;11.32;7.28;;;13.00;99.90;;;;;;5033371;28;20040;-74
2021/10/06 00:59:26;;;;;;;10.60;6.43;;;13.00;99.90;;;;;;5050996;28;20029;-73
2021/10/06 01:01:52;;;;;;;9.85;7.43;;;13.00;99.90;;;;;;5051654;28;20035;-74
2021/10/06 01:04:18;;;;;;;10.02;6.53;;;13.00;99.90;;;;;;5051319;28;20104;-74
2021/10/06 01:06:43;;;;;;;9.90;7.68;;;13.00;99.90;;;;;;5049142;28;20025;-73
2021/10/06 01:09:09;;;;;;;10.85;7.07;;;13.00;99.90;;;;;;5050751;28;20040;-73
2021/10/06 01:11:35;;;;;;;13.35;7.95;;;13.00;99.90;;;;;;5032814;28;20025;-74
2021/10/06 01:14:01;;;;;;;11.35;7.47;;;13.00;99.90;;;;;;5050978;28;20283;-74
2021/10/06 01:16:28;;;;;;;12.60;7.47;;;13.00;99.90;;;;;;5050466;28;20031;-74
2021/10/06 01:18:53;;;;;;;17.02;8.48;;;13.00;99.90;;;;;;5046377;28;20035;-74
2021/10/06 01:21:20;;;;;;;11.52;8.20;;;13.00;99.90;;;;;;5050737;28;20021;-74
2021/10/06 01:23:47;;;;;;;10.85;6.88;;;12.90;99.90;;;;;;5047876;28;20032;-74
2021/10/06 01:26:20;;;;;;;10.98;6.60;;;12.90;99.90;;;;;;5050456;28;20496;-75
2021/10/06 01:28:55;;;;;;;11.77;7.80;;;13.00;99.90;;;;;;5050786;28;20449;-74
2021/10/06 01:31:27;;;;;;;13.52;7.63;;;13.00;99.90;;;;;;5050636;28;20161;-73
2021/10/06 01:33:53;;;;;;;12.80;7.50;;;12.90;99.90;;;;;;5050896;28;20032;-74
2021/10/06 01:36:19;;;;;;;10.23;7.55;;;12.90;99.90;;;;;;5050608;28;20051;-74
2021/10/06 01:38:45;;;;;;;12.90;7.88;;;12.90;99.90;;;;;;5050235;28;20465;-74
2021/10/06 01:41:11;;;;;;;14.30;8.18;;;12.90;99.90;;;;;;5048006;28;20043;-73
2021/10/06 01:43:36;;;;;;;16.50;8.68;;;12.80;99.90;;;;;;5050206;28;20041;-74
2021/10/06 01:46:02;;;;;;;16.02;8.10;;;12.80;99.90;;;;;;5050623;28;20025;-74
2021/10/06 01:48:28;;;;;;;12.95;8.80;;;12.70;99.90;;;;;;5050354;28;20036;-74
2021/10/06 01:50:54;;;;;;;14.05;8.43;;;12.70;99.90;;;;;;5049654;28;20033;-74
2021/10/06 01:53:20;;;;;;;13.77;8.23;;;12.70;99.90;;;;;;5032323;28;20037;-74
2021/10/06 01:55:46;;;;;;;13.50;7.75;;;12.80;99.90;;;;;;5030655;28;20398;-74
2021/10/06 01:58:17;;;;;;;12.80;8.10;;;12.80;99.90;;;;;;5049577;28;20135;-74
2021/10/06 02:00:46;;;;;;;14.00;8.18;;;12.70;99.90;;;;;;5050309;28;20025;-73
2021/10/06 02:03:12;;;;;;;14.18;8.45;;;12.70;99.90;;;;;;5049931;28;20543;-75
2021/10/06 02:05:37;;;;;;;14.43;8.73;;;12.70;99.90;;;;;;5050337;28;20033;-73
2021/10/06 02:08:05;;;;;;;11.70;8.27;;;12.70;99.90;;;;;;5050195;28;20029;-73
2021/10/06 02:10:33;;;;;;;14.60;8.23;;;12.70;99.90;;;;;;5050335;28;20048;-74
2021/10/06 02:12:59;;;;;;;16.40;9.55;;;12.60;99.90;;;;;;5047617;28;20029;-74
2021/10/06 02:15:25;;;;;;;10.88;8.07;;;12.60;99.90;;;;;;5049361;28;20033;-74
2021/10/06 02:17:51;;;;;;;14.43;8.68;;;12.60;99.90;;;;;;5028641;28;20082;-74
2021/10/06 02:20:17;;;;;;;10.77;7.75;;;12.60;99.90;;;;;;5048293;28;20355;-74
2021/10/06 02:22:44;;;;;;;16.83;9.10;;;12.60;99.90;;;;;;5050328;28;20110;-74
2021/10/06 02:25:10;;;;;;;11.90;7.78;;;12.60;99.90;;;;;;5049992;28;20497;-73
2021/10/06 02:27:36;;;;;;;14.35;7.82;;;12.60;99.90;;;;;;5050130;28;20032;-74
2021/10/06 02:30:05;;;;;;;11.63;7.20;;;12.60;99.90;;;;;;5047999;28;20430;-74
2021/10/06 02:32:30;;;;;;;10.23;6.97;;;12.70;99.90;;;;;;5049075;28;20028;-74
2021/10/06 02:34:56;;;;;;;13.10;7.82;;;12.70;99.90;;;;;;5049843;28;20036;-74
2021/10/06 02:37:22;;;;;;;12.80;7.50;;;12.70;99.90;;;;;;5049649;28;20036;-74
2021/10/06 02:39:48;;;;;;;11.63;8.63;;;12.70;99.90;;;;;;5031609;28;20561;-74
2021/10/06 02:42:14;;;;;;;12.52;8.52;;;12.70;99.90;;;;;;5031344;28;20036;-74
2021/10/06 02:44:40;;;;;;;12.88;7.45;;;12.70;99.90;;;;;;5050071;28;20351;-74
2021/10/06 02:47:06;;;;;;;11.07;7.80;;;12.70;99.90;;;;;;5047856;28;20029;-74
2021/10/06 02:49:31;;;;;;;14.77;6.57;;;12.80;99.90;;;;;;5033287;28;20397;-74
2021/10/06 02:51:58;;;;;;;13.05;6.82;;;12.80;99.90;;;;;;5053526;28;20509;-74
2021/10/06 02:54:23;;;;;;;12.10;7.28;;;12.80;99.90;;;;;;5035427;28;20029;-74
2021/10/06 02:56:49;;;;;;;19.17;8.27;;;12.80;99.90;;;;;;5035784;28;20047;-74
2021/10/06 02:59:15;;;;;;;11.98;7.57;;;12.80;99.90;;;;;;5035199;28;20033;-74
2021/10/06 03:01:41;;;;;;;12.35;6.80;;;12.80;99.90;;;;;;5035198;28;20025;-73
2021/10/06 03:04:07;;;;;;;10.45;7.05;;;12.80;99.90;;;;;;5052097;28;20021;-74
2021/10/06 03:06:32;;;;;;;11.60;6.63;;;12.80;99.90;;;;;;5035255;28;20165;-74
2021/10/06 03:08:58;;;;;;;12.77;7.30;;;12.80;99.90;;;;;;5031980;28;20029;-74
2021/10/06 03:11:24;;;;;;;12.63;7.30;;;12.80;99.90;;;;;;5033184;28;20026;-74
2021/10/06 03:13:50;;;;;;;13.05;8.02;;;12.80;99.90;;;;;;5034961;28;20557;-74
2021/10/06 03:16:16;;;;;;;13.82;7.35;;;12.80;99.90;;;;;;5053297;28;20116;-74
2021/10/06 03:18:41;;;;;;;14.27;7.35;;;12.80;99.90;;;;;;5052730;28;20402;-73
2021/10/06 03:21:07;;;;;;;9.45;6.63;;;12.70;99.90;;;;;;5051146;28;20025;-74
2021/10/06 03:23:33;;;;;;;13.68;8.40;;;12.70;99.90;;;;;;5034515;28;20021;-74
2021/10/06 03:25:59;;;;;;;11.07;7.60;;;12.70;99.90;;;;;;5053073;28;20482;-74
2021/10/06 03:28:25;;;;;;;9.73;7.32;;;12.70;99.90;;;;;;5053159;28;20033;-74
2021/10/06 03:30:50;;;;;;;13.27;7.05;;;12.70;99.90;;;;;;5052775;28;20033;-74
2021/10/06 03:33:16;;;;;;;10.50;7.55;;;12.70;99.90;;;;;;5052750;28;20479;-74
2021/10/06 03:35:42;;;;;;;14.70;7.63;;;12.70;99.90;;;;;;5052861;28;20521;-74
2021/10/06 03:38:09;;;;;;;11.32;6.95;;;12.70;99.90;;;;;;5050816;28;20041;-74
2021/10/06 03:40:34;;;;;;;12.75;6.75;;;12.70;99.90;;;;;;5064105;23;20073;-77
2021/10/06 03:43:00;;;;;;;9.15;6.10;;;12.70;99.90;;;;;;5044196;28;20060;-77
2021/10/06 03:45:26;;;;;;;13.40;6.57;;;12.70;99.90;;;;;;5033471;28;20061;-76
2021/10/06 03:47:52;;;;;;;11.40;5.72;;;12.60;99.90;;;;;;5033296;28;20038;-75
2021/10/06 03:50:19;;;;;;;11.98;6.50;;;12.60;99.90;;;;;;5032144;28;20517;-77
2021/10/06 03:52:45;;;;;;;12.05;6.05;;;12.50;99.90;;;;;;5032642;28;20044;-77
2021/10/06 03:55:11;;;;;;;10.02;6.32;;;12.60;99.90;;;;;;5031041;28;20025;-77
2021/10/06 03:57:38;;;;;;;9.68;6.43;;;12.50;99.90;;;;;;5032305;28;20033;-77
2021/10/06 04:00:06;;;;;;;12.25;6.47;;;12.50;99.90;;;;;;5031454;28;20068;-77
2021/10/06 04:02:32;;;;;;;15.27;7.38;;;12.50;99.90;;;;;;5031161;28;20474;-77
2021/10/06 04:05:00;;;;;;;11.77;6.15;;;12.40;99.90;;;;;;5032399;28;20109;-77
2021/10/06 04:07:26;;;;;;;9.40;5.95;;;12.40;99.90;;;;;;5032520;28;20491;-77
2021/10/06 04:09:52;;;;;;;14.70;6.53;;;12.40;99.90;;;;;;5032521;28;20045;-76
2021/10/06 04:12:18;;;;;;;13.18;6.22;;;12.40;99.90;;;;;;5030744;28;20065;-76
2021/10/06 04:14:43;;;;;;;12.23;6.72;;;12.30;99.90;;;;;;5031201;28;20060;-75
2021/10/06 04:17:09;;;;;;;11.52;6.78;;;12.30;99.90;;;;;;5031762;28;20068;-75
2021/10/06 04:19:35;;;;;;;8.48;6.60;;;12.20;99.90;;;;;;5031554;28;20059;-76
2021/10/06 04:22:00;;;;;;;11.00;6.50;;;12.20;99.90;;;;;;5031848;28;20479;-76
2021/10/06 04:24:26;;;;;;;11.10;7.13;;;12.10;99.90;;;;;;5032291;28;20382;-76
2021/10/06 04:26:53;;;;;;;10.93;5.93;;;12.10;99.90;;;;;;5032120;28;20033;-75
2021/10/06 04:29:18;;;;;;;13.07;6.57;;;12.10;99.90;;;;;;5029075;28;20039;-76
2021/10/06 04:31:44;;;;;;;10.35;6.45;;;12.00;99.90;;;;;;5013409;28;20034;-75
2021/10/06 04:34:10;;;;;;;12.23;6.82;;;12.00;99.90;;;;;;5031609;28;20029;-75
2021/10/06 04:36:35;;;;;;;13.68;6.88;;;12.00;99.90;;;;;;5031739;28;20034;-75
2021/10/06 04:39:01;;;;;;;9.20;6.45;;;11.90;99.90;;;;;;5031546;28;20116;-76
2021/10/06 04:41:27;;;;;;;12.55;6.18;;;11.90;99.90;;;;;;5031646;28;20131;-75
2021/10/06 04:43:53;;;;;;;10.63;6.63;;;11.90;99.90;;;;;;5013029;28;20022;-76
2021/10/06 04:46:19;;;;;;;12.80;6.47;;;11.80;99.90;;;;;;5029310;28;20044;-76
2021/10/06 04:48:47;;;;;;;9.95;6.40;;;11.80;99.90;;;;;;5030478;28;20025;-77
2021/10/06 04:51:14;;;;;;;19.15;7.60;;;11.80;99.90;;;;;;5031444;28;20032;-76
2021/10/06 04:53:40;;;;;;;19.95;7.55;;;11.80;99.90;;;;;;5031657;28;20053;-77
2021/10/06 04:56:06;;;;;;;13.00;7.00;;;11.80;99.90;;;;;;5031578;28;20022;-76
2021/10/06 04:58:31;;;;;;;20.05;8.02;;;11.70;99.90;;;;;;5031403;28;20037;-76
2021/10/06 05:00:57;;;;;;;15.27;7.75;;;11.70;99.90;;;;;;5028453;28;20033;-76
2021/10/06 05:03:23;;;;;;;13.60;7.88;;;11.70;99.90;;;;;;5029505;28;20028;-76
2021/10/06 05:05:49;;;;;;;16.50;8.15;;;11.70;99.90;;;;;;5031338;28;20044;-77
2021/10/06 05:08:14;;;;;;;12.75;7.43;;;11.60;99.90;;;;;;5031315;28;20506;-75
2021/10/06 05:10:40;;;;;;;18.55;9.32;;;11.60;99.90;;;;;;5031126;28;20033;-75
2021/10/06 05:13:06;;;;;;;11.00;7.57;;;11.60;99.90;;;;;;5030808;28;20421;-75
2021/10/06 05:15:32;;;;;;;12.93;8.13;;;11.60;99.90;;;;;;5031113;28;20026;-75
2021/10/06 05:17:57;;;;;;;11.02;7.38;;;11.60;99.90;;;;;;5029189;28;20036;-76
2021/10/06 05:20:23;;;;;;;11.73;7.40;;;11.60;99.90;;;;;;5030470;28;20545;-75
2021/10/06 05:22:49;;;;;;;18.55;8.50;;;11.60;99.90;;;;;;5030713;28;20021;-76
2021/10/06 05:25:15;;;;;;;14.32;8.40;;;11.60;99.90;;;;;;5009766;28;20025;-76
2021/10/06 05:27:41;;;;;;;14.48;8.60;;;11.60;99.90;;;;;;4980596;28;20454;-75
2021/10/06 05:30:08;;;;;;;19.50;8.93;;;11.60;99.90;;;;;;5029651;28;20522;-76
2021/10/06 05:32:35;;;;;;;16.80;8.48;;;11.60;99.90;;;;;;5030031;28;20038;-76
2021/10/06 05:35:01;;;;;;;13.65;8.43;;;11.60;99.90;;;;;;5028966;28;20034;-76
2021/10/06 05:37:27;;;;;;;14.57;8.25;;;11.50;99.90;;;;;;5028946;28;20033;-76
2021/10/06 05:39:53;;;;;;;18.02;8.50;;;11.50;99.90;;;;;;5030313;28;20116;-76
2021/10/06 05:42:19;;;;;;;12.35;8.30;;;11.50;99.90;;;;;;5029403;28;20040;-76
2021/10/06 05:44:44;;;;;;;23.58;10.63;;;11.50;99.90;;;;;;5030703;28;20017;-76
2021/10/06 05:47:10;;;;;;;16.52;9.68;;;11.50;99.90;;;;;;5030609;28;20017;-76
2021/10/06 05:49:36;;;;;;;14.93;9.02;;;11.50;99.90;;;;;;5011290;28;20498;-76
2021/10/06 05:52:02;;;;;;;15.00;9.73;;;11.60;99.90;;;;;;5012992;28;20130;-77
2021/10/06 05:54:27;;;;;;;13.52;8.50;;;11.50;99.90;;;;;;5034876;28;20037;-76
2021/10/06 05:56:53;;;;;;;13.52;9.07;;;11.50;99.90;;;;;;5033901;28;20040;-77
2021/10/06 05:59:19;;;;;;;19.15;9.00;;;11.50;99.90;;;;;;5033643;28;20418;-77
2021/10/06 06:01:45;;;;;;;16.40;9.70;;;11.60;99.90;;;;;;5031243;28;20047;-76
2021/10/06 06:04:10;;;;;;;14.82;9.02;;;11.50;99.90;;;;;;5035598;28;20032;-76
2021/10/06 06:06:41;;;;;;;15.73;9.13;;;11.50;99.90;;;;;;5034292;28;20057;-77
2021/10/06 06:09:09;;;;;;;16.80;8.90;;;11.60;99.90;;;;;;5030134;28;20029;-77
2021/10/06 06:11:35;;;;;;;15.98;8.70;;;11.60;99.90;;;;;;5032791;28;20033;-77
2021/10/06 06:14:00;;;;;;;12.15;7.80;;;11.50;99.90;;;;;;5034269;28;20037;-75
2021/10/06 06:16:26;;;;;;;19.05;9.15;;;11.50;99.90;;;;;;5032418;28;20113;-76
2021/10/06 06:18:52;;;;;;;14.25;8.50;;;11.60;99.90;;;;;;5014323;28;20034;-77
2021/10/06 06:21:18;;;;;;;14.68;8.88;;;11.60;99.90;;;;;;5014210;28;20035;-76
2021/10/06 06:23:47;;;;;;;15.25;8.52;;;11.60;99.90;;;;;;5034237;28;20391;-77
2021/10/06 06:26:12;;;;;;;17.67;7.90;;;11.60;99.90;;;;;;5038672;28;20025;-77
2021/10/06 06:28:39;;;;;;;20.58;8.30;;;11.60;99.90;;;;;;5038490;28;20033;-76
2021/10/06 06:31:10;;;;;;;16.20;7.07;;;11.60;99.90;;;;;;5020822;28;20044;-77
2021/10/06 06:33:36;;;;;;;13.07;6.80;;;11.60;99.90;;;;;;5038913;28;20399;-77
2021/10/06 06:36:04;;;;;;;20.67;8.48;;;11.70;99.90;;;;;;5038769;28;20151;-76
2021/10/06 06:38:30;;;;;;;13.45;7.50;;;11.70;99.90;;;;;;5039146;28;20129;-77
2021/10/06 06:40:56;;;;;;;18.85;7.43;;;11.70;99.90;;;;;;5038020;28;20057;-77
2021/10/06 06:43:22;;;;;;;14.05;7.43;;;11.70;99.90;;;;;;5037960;28;20475;-77
2021/10/06 06:45:48;;;;;;;14.52;7.10;;;11.70;99.90;;;;;;5018850;28;20053;-77
2021/10/06 06:48:14;;;;;;;12.13;7.65;;;11.70;99.90;;;;;;5005071;28;20487;-77
2021/10/06 06:50:40;;;;;;;12.27;7.05;;;11.80;99.90;;;;;;5012235;28;20029;-77
2021/10/06 06:53:05;;;;;;;11.55;7.45;;;11.80;99.90;;;;;;5039525;28;20029;-76
2021/10/06 06:55:31;;;;;;;13.35;6.60;;;11.80;99.90;;;;;;5019298;28;20032;-77
2021/10/06 06:57:57;;;;;;;16.23;6.25;;;11.80;99.90;;;;;;5038223;28;20033;-76
2021/10/06 07:00:23;;;;;;;15.25;7.07;;;11.90;99.90;;;;;;5038503;28;20437;-75
2021/10/06 07:02:51;;;;;;;13.90;6.32;;;11.90;99.90;;;;;;5037714;28;20499;-77
2021/10/06 07:05:16;;;;;;;8.98;6.53;;;12.00;99.90;;;;;;5039551;28;20387;-77
2021/10/06 07:07:43;;;;;;;12.45;6.13;;;12.00;99.90;;;;;;5021063;28;20026;-77
2021/10/06 07:10:10;;;;;;;9.43;5.60;;;12.00;99.90;;;;;;5036720;28;20033;-76
2021/10/06 07:12:36;;;;;;;10.25;5.47;;;12.00;99.90;;;;;;5037257;28;20091;-77
2021/10/06 07:15:02;;;;;;;11.35;6.07;;;12.10;99.90;;;;;;5038192;28;20033;-77
2021/10/06 07:17:28;;;;;;;10.23;5.30;;;12.10;99.90;;;;;;5038313;28;20092;-77
2021/10/06 07:19:54;;;;;;;11.20;5.20;;;12.10;99.90;;;;;;5038155;28;20063;-77
2021/10/06 07:22:20;;;;;;;8.70;5.00;;;12.10;99.90;;;;;;5020464;28;20083;-76
2021/10/06 07:24:46;;;;;;;9.57;5.75;;;12.10;99.90;;;;;;5039157;28;20021;-77
2021/10/06 07:27:12;;;;;;;9.80;4.95;;;12.10;99.90;;;;;;5037128;28;20236;-76
2021/10/06 07:29:39;;;;;;;10.20;4.88;;;12.20;99.90;;;;;;5018869;28;20017;-77
2021/10/06 07:32:05;;;;;;;12.23;5.18;;;12.20;99.90;;;;;;5020620;28;20387;-78
2021/10/06 07:34:32;;;;;;;6.80;4.57;;;12.30;99.90;;;;;;5035928;28;20026;-75
2021/10/06 07:36:57;;;;;;;10.20;5.28;;;12.30;99.90;;;;;;5015031;28;20117;-76
2021/10/06 07:39:23;;;;;;;12.93;5.40;;;12.40;99.90;;;;;;5033054;28;20112;-76
2021/10/06 07:41:49;;;;;;;7.55;4.60;;;12.40;99.90;;;;;;5033869;28;20390;-75
2021/10/06 07:44:16;;;;;;;12.73;5.63;;;12.40;99.90;;;;;;5031300;28;20022;-76
2021/10/06 07:46:42;;;;;;;6.97;4.40;;;12.40;99.90;;;;;;5015150;28;20032;-75
2021/10/06 07:49:09;;;;;;;12.52;4.50;;;12.50;99.70;;;;;;5015821;28;20034;-76
2021/10/06 07:51:36;;;;;;;9.95;4.32;;;12.50;99.80;;;;;;5014882;28;20056;-76
2021/10/06 07:54:02;;;;;;;12.60;5.15;;;12.60;99.60;;;;;;5032950;28;20029;-76
2021/10/06 07:56:28;;;;;;;10.10;4.15;;;12.60;99.50;;;;;;5015159;28;20509;-76
2021/10/06 07:58:54;;;;;;;8.02;4.38;;;12.60;99.10;;;;;;5032919;28;20030;-76
2021/10/06 08:01:19;;;;;;;14.70;5.15;;;12.70;98.70;;;;;;5012687;28;20030;-76
2021/10/06 08:03:45;;;;;;;12.50;4.47;;;12.70;98.40;;;;;;5011330;28;20022;-76
2021/10/06 08:06:11;;;;;;;9.65;4.22;;;12.70;98.80;;;;;;5012318;28;20021;-74
2021/10/06 08:08:37;;;;;;;10.13;4.90;;;12.70;98.50;;;;;;5032775;28;20517;-76
2021/10/06 08:11:02;;;;;;;11.65;4.45;;;12.80;98.20;;;;;;5032913;28;20383;-76
2021/10/06 08:13:29;;;;;;;9.77;4.40;;;12.80;98.50;;;;;;5014662;28;20486;-76
2021/10/06 08:15:55;;;;;;;16.55;5.15;;;12.90;98.00;;;;;;5014739;28;20036;-76
2021/10/06 08:18:21;;;;;;;13.50;4.50;;;12.90;97.50;;;;;;5012757;28;20479;-77
2021/10/06 08:20:48;;;;;;;7.18;3.50;;;12.90;97.20;;;;;;5008201;28;20104;-77
2021/10/06 08:23:17;;;;;;;10.48;4.53;;;13.00;97.40;;;;;;5032376;28;20025;-76
2021/10/06 08:25:45;;;;;;;10.75;4.30;;;13.00;97.40;;;;;;5033000;28;20025;-77
2021/10/06 08:28:12;;;;;;;7.65;3.83;;;13.10;97.10;;;;;;5033242;28;20043;-76
2021/10/06 08:30:39;;;;;;;8.88;3.63;;;13.10;96.90;;;;;;5032402;28;20552;-77
2021/10/06 08:33:04;;;;;;;5.47;3.00;;;13.10;96.50;;;;;;5032510;28;20521;-77
2021/10/06 08:35:30;;;;;;;8.55;3.22;;;13.20;96.70;;;;;;5030772;28;20025;-76
2021/10/06 08:37:56;;;;;;;6.72;2.83;;;13.20;96.90;;;;;;5031457;28;20033;-76
2021/10/06 08:40:23;;;;;;;8.23;3.00;;;13.30;96.70;;;;;;5032146;28;20113;-75
2021/10/06 08:42:49;;;;;;;9.98;3.00;;;13.40;96.30;;;;;;5031030;28;20029;-76
2021/10/06 08:45:15;;;;;;;6.30;2.90;;;13.50;95.90;;;;;;5032254;28;20120;-76
2021/10/06 08:47:44;;;;;;;6.82;2.97;;;13.60;96.20;;;;;;5014441;28;20112;-77
2021/10/06 08:50:17;;;;;;;9.77;3.47;;;13.70;95.60;;;;;;5012247;28;20033;-74
2021/10/06 08:52:46;;;;;;;9.60;3.10;;;13.80;95.60;;;;;;5028834;28;20534;-75
2021/10/06 08:55:13;;;;;;;7.53;2.92;;;13.80;95.60;;;;;;5031181;28;20499;-75
2021/10/06 08:57:38;;;;;;;8.05;2.50;;;13.90;95.10;;;;;;5031273;28;20456;-75
2021/10/06 09:00:06;;;;;;;4.32;2.30;;;13.90;94.90;;;;;;5031822;28;20275;-75
2021/10/06 09:02:37;;;;;;;5.50;2.45;;;13.90;94.80;;;;;;5031077;28;20025;-74
2021/10/06 09:05:03;;;;;;;6.45;2.88;;;14.00;94.70;;;;;;5031509;28;20583;-75
2021/10/06 09:07:29;;;;;;;4.28;2.10;;;14.10;94.00;;;;;;5028782;28;20028;-76
2021/10/06 09:09:55;;;;;;;5.50;2.13;;;14.10;93.90;;;;;;5030325;28;20427;-76
2021/10/06 09:12:21;;;;;;;8.27;2.97;;;14.20;94.30;;;;;;5031224;28;20305;-76
2021/10/06 09:14:48;;;;;;;5.85;2.10;;;14.20;93.60;;;;;;4993905;28;20066;-75
2021/10/06 09:17:19;;;;;;;6.45;2.30;;;14.20;93.70;;;;;;5016543;28;20033;-75
2021/10/06 09:19:53;;;;;;;7.07;2.53;;;14.30;93.60;;;;;;5031012;28;20036;-75
2021/10/06 09:22:26;;;;;;;5.93;2.53;;;14.40;92.60;;;;;;5030812;28;20048;-73
2021/10/06 09:25:03;;;;;;;8.10;2.33;;;14.50;92.60;;;;;;5028923;28;20018;-75
2021/10/06 09:27:32;;;;;;;5.57;2.20;;;14.60;92.00;;;;;;5013073;28;20061;-75
2021/10/06 09:30:04;;;;;;;4.53;1.77;;;14.60;91.90;;;;;;5030550;28;20108;-76
2021/10/06 09:32:36;;;;;;;2.80;1.80;;;14.50;91.90;;;;;;5031026;28;20036;-75
2021/10/06 09:35:04;;;;;;;;;;;14.70;91.20;;;;;;5031402;28;20140;-74
2021/10/06 09:37:30;;;;;;;6.15;1.63;;;14.80;91.90;;;;;;5012882;28;19966;-76
2021/10/06 09:39:56;;;;;;;5.32;1.60;;;15.00;91.90;;;;;;5045288;23;20480;-73
2021/10/06 09:42:23;;;;;;;7.35;1.83;;;15.10;90.70;;;;;;5010169;28;20467;-73
2021/10/06 09:44:56;;;;;;;6.13;1.63;;;15.30;90.60;;;;;;5011045;28;20069;-73
2021/10/06 09:47:23;;;;;;;3.95;1.40;;;15.40;90.40;;;;;;5010875;28;20037;-73
2021/10/06 09:49:55;;;;;;;4.85;1.30;;;15.70;88.30;;;;;;5010724;28;20072;-73
2021/10/06 09:52:27;;;;;;;2.42;0.90;;;15.80;85.90;;;;;;5009846;28;20479;-73
2021/10/06 09:54:57;;;;;;;3.80;1.23;;;16.20;88.30;;;;;;5010818;28;20506;-73
2021/10/06 09:57:23;;;;;;;4.75;1.23;;;16.40;85.10;;;;;;4987950;28;20037;-73
2021/10/06 09:59:50;;;;;;;4.22;1.00;;;16.90;86.60;;;;;;5009104;28;20022;-74
2021/10/06 10:02:17;;;;;;;3.13;0.90;;;17.90;83.90;;;;;;5005574;28;20022;-73
2021/10/06 10:04:43;;;;;;;3.60;1.00;;;18.80;76.30;;;;;;5010559;28;20032;-73
2021/10/06 10:07:09;;;;;;;1.65;0.90;;;19.50;75.70;;;;;;5010722;28;20022;-73
2021/10/06 10:09:35;;;;;;;3.55;1.20;;;19.30;71.60;;;;;;5009673;28;20029;-74
2021/10/06 10:12:02;;;;;;;2.05;1.02;;;18.70;73.40;;;;;;5010258;28;20104;-73
2021/10/06 10:14:28;;;;;;;2.58;1.02;;;18.20;74.70;;;;;;5006225;28;20040;-74
2021/10/06 10:16:53;;;;;;;3.25;1.10;;;17.60;76.80;;;;;;5005759;28;20026;-74
2021/10/06 10:19:19;;;;;;;1.65;1.00;;;16.90;78.30;;;;;;4983686;28;20038;-74
2021/10/06 10:21:49;;;;;;;4.55;1.20;;;16.40;79.30;;;;;;5004189;28;20431;-74
2021/10/06 10:24:22;;;;;;;2.00;1.00;;;16.00;81.10;;;;;;4974335;28;20037;-74
2021/10/06 10:27:08;;;;;;;6.65;1.55;;;15.60;82.90;;;;;;5007853;28;20109;-74
2021/10/06 10:29:56;;;;;;;4.30;1.23;;;15.30;83.50;;;;;;5007403;28;20450;-74
2021/10/06 10:32:24;;;;;;;6.93;1.63;;;15.20;85.20;;;;;;5002662;28;20091;-74
2021/10/06 10:34:56;;;;;;;2.17;1.23;;;15.10;85.50;;;;;;5009783;28;20091;-74
2021/10/06 10:37:41;;;;;;;;;;;15.00;85.80;;;;;;5006080;28;20037;-74
2021/10/06 10:40:34;;;;;;;4.57;1.63;;;14.90;86.80;;;;;;5006964;28;19921;-74
2021/10/06 10:43:17;;;;;;;4.78;1.70;;;14.90;87.60;;;;;;5009543;28;20029;-74
2021/10/06 10:45:51;;;;;;;6.95;1.70;;;14.90;88.00;;;;;;5007176;28;20066;-74
2021/10/06 10:48:22;;;;;;;4.90;1.67;;;15.00;89.10;;;;;;5006856;28;20391;-74
2021/10/06 10:50:48;;;;;;;4.82;1.67;;;15.00;89.40;;;;;;5003702;28;20026;-74
2021/10/06 10:53:16;;;;;;;8.88;2.75;;;14.90;88.20;;;;;;5009433;28;20120;-74
2021/10/06 10:55:58;;;;;;;3.85;1.67;;;14.90;88.10;;;;;;5007258;28;20432;-74
2021/10/06 10:58:32;;;;;;;4.88;1.98;;;14.90;88.40;;;;;;5010105;28;20085;-74
2021/10/06 11:01:01;;;;;;;7.25;1.50;;;14.90;88.90;;;;;;5010112;28;20022;-74
2021/10/06 11:03:28;;;;;;;4.55;1.40;;;14.90;88.10;;;;;;5010161;28;20040;-74
2021/10/06 11:05:54;;;;;;;4.22;1.40;;;14.90;88.70;;;;;;5004426;28;20479;-74
2021/10/06 11:08:30;;;;;;;4.05;1.45;;;14.90;88.80;;;;;;5008844;28;20088;-75
2021/10/06 11:11:13;;;;;;;5.50;1.38;;;14.80;87.80;;;;;;4995908;28;20034;-74
2021/10/06 11:13:48;;;;;;;3.83;1.90;;;14.80;87.70;;;;;;4989828;28;20034;-74
2021/10/06 11:16:14;;;;;;;4.35;1.27;;;14.90;89.00;;;;;;5006694;28;20411;-74
2021/10/06 11:18:45;;;;;;;3.50;1.50;;;14.90;88.10;;;;;;5013568;28;20483;-73
2021/10/06 11:21:11;;;;;;;3.58;1.45;;;14.90;88.10;;;;;;4991496;28;20022;-74
2021/10/06 11:23:43;;;;;;;5.65;1.52;;;15.00;87.80;;;;;;4990206;28;20021;-74
2021/10/06 11:26:18;;;;;;;3.40;1.27;;;15.10;88.00;;;;;;4999872;28;20475;-74
2021/10/06 11:28:50;;;;;;;3.58;1.40;;;15.20;87.60;;;;;;5002797;28;20034;-74
2021/10/06 11:31:21;;;;;;;2.92;1.23;;;15.30;87.30;;;;;;5013095;28;20113;-73
2021/10/06 11:33:47;;;;;;;4.10;1.60;;;15.50;86.80;;;;;;5012148;28;20176;-74
2021/10/06 11:36:22;;;;;;;4.40;1.40;;;15.60;85.90;;;;;;5013412;28;20399;-74
2021/10/06 11:38:56;;;;;;;1.95;1.00;;;15.60;84.70;;;;;;4994417;28;20116;-74
2021/10/06 11:41:22;;;;;;;4.07;1.70;;;15.70;86.00;;;;;;5008577;28;20057;-74
2021/10/06 11:43:53;;;;;;;1.95;1.00;;;15.70;84.40;;;;;;4996128;28;20427;-73
2021/10/06 11:46:31;;;;;;;;;;;15.60;85.30;;;;;;5008040;28;20027;-74
2021/10/06 11:48:58;;;;;;;4.57;1.30;;;15.50;84.50;;;;;;5012190;28;20427;-74
2021/10/06 11:51:57;;;;;;;4.82;2.20;;;15.30;85.50;;;;;;5008409;28;20053;-74
2021/10/06 11:54:24;;;;;;;5.00;1.27;;;15.20;87.20;;;;;;4953372;28;20120;-74
2021/10/06 11:56:52;;;;;;;5.45;1.33;;;15.20;86.90;;;;;;5013184;28;20030;-74
2021/10/06 11:59:21;;;;;;;5.32;1.20;;;15.20;86.70;;;;;;5013524;28;20421;-74
2021/10/06 12:02:04;;;;;;;3.53;1.08;;;15.20;86.70;;;;;;5012700;28;20021;-74
2021/10/06 12:04:32;;;;;;;3.10;1.20;;;15.20;87.00;;;;;;5005783;28;20027;-74
2021/10/06 12:07:18;;;;;;;5.20;1.25;;;15.20;86.50;;;;;;4973922;28;20033;-74
2021/10/06 12:09:57;;;;;;;5.00;1.95;;;15.20;86.70;;;;;;5009873;28;20112;-74
2021/10/06 12:12:30;;;;;;;4.63;1.05;;;15.20;86.90;;;;;;5012235;28;20144;-74
2021/10/06 12:15:00;;;;;;;7.75;1.65;;;15.30;87.20;;;;;;5012662;28;20033;-73
2021/10/06 12:17:35;;;;;;;4.80;1.48;;;15.30;86.70;;;;;;4994924;28;20059;-74
2021/10/06 12:20:03;;;;;;;3.05;1.10;;;15.30;86.80;;;;;;5006693;28;20022;-74
2021/10/06 12:22:44;;;;;;;3.30;1.25;;;15.30;86.40;;;;;;5001068;28;20071;-74
2021/10/06 12:25:22;;;;;;;5.90;1.40;;;15.30;87.10;;;;;;5000134;28;20087;-74
2021/10/06 12:27:50;;;;;;;3.95;1.60;;;15.20;87.00;;;;;;4996368;28;20396;-74
2021/10/06 12:30:27;;;;;;;4.03;1.38;;;15.20;87.20;;;;;;5012161;28;20029;-74
2021/10/06 12:33:02;;;;;;;5.22;1.20;;;15.20;87.10;;;;;;5011970;28;20045;-74
2021/10/06 12:35:28;;;;;;;7.07;1.58;;;15.20;87.10;;;;;;5012111;28;20058;-74
2021/10/06 12:37:57;;;;;;;4.10;1.20;;;15.10;87.70;;;;;;5009486;28;20068;-74
2021/10/06 12:40:36;;;;;;;3.50;1.15;;;15.20;87.00;;;;;;5006013;28;20519;-74
2021/10/06 12:43:07;;;;;;;2.65;1.23;;;15.30;86.80;;;;;;5002034;28;20504;-74
2021/10/06 12:45:34;;;;;;;2.78;1.10;;;15.30;86.40;;;;;;5008429;28;20022;-74